createdAt,value
2019-02-09T00:00:56.843Z,10.57
2019-02-09T00:03:26.572Z,12.77
2019-02-09T00:05:56.400Z,11.70
2019-02-09T00:08:26.125Z,11.27
2019-02-09T00:10:55.926Z,11.70
2019-02-09T00:13:25.642Z,13.17
2019-02-09T00:15:55.387Z,9.20
2019-02-09T00:18:25.108Z,10.80
2019-02-09T00:20:54.857Z,12.10
2019-02-09T00:23:24.587Z,13.70
2019-02-09T00:25:54.338Z,13.80
2019-02-09T00:28:24.045Z,10.93
2019-02-09T00:30:53.795Z,13.60
2019-02-09T00:33:23.526Z,14.13
2019-02-09T00:35:53.281Z,13.57
2019-02-09T00:38:23.003Z,13.50
2019-02-09T00:40:52.768Z,12.07
2019-02-09T00:43:22.492Z,13.20
2019-02-09T00:45:52.374Z,16.83
2019-02-09T00:48:22.324Z,15.07
2019-02-09T00:50:55.253Z,14.17
2019-02-09T00:53:25.090Z,13.07
2019-02-09T00:55:56.640Z,14.57
2019-02-09T00:58:26.622Z,11.80
2019-02-09T01:00:57.680Z,16.77
2019-02-09T01:03:27.510Z,13.30
2019-02-09T01:05:57.434Z,13.77
2019-02-09T01:08:28.924Z,17.93
2019-02-09T01:11:03.911Z,17.10
2019-02-09T01:13:33.723Z,18.73
2019-02-09T01:16:03.471Z,13.47
2019-02-09T01:18:33.174Z,13.43
2019-02-09T01:21:02.919Z,13.23
2019-02-09T01:23:32.654Z,16.33
2019-02-09T01:26:02.420Z,13.53
2019-02-09T01:28:32.162Z,16.97
2019-02-09T01:31:01.950Z,12.83
2019-02-09T01:33:31.676Z,12.20
2019-02-09T01:36:01.413Z,17.57
2019-02-09T01:38:31.125Z,13.10
2019-02-09T01:41:00.862Z,11.37
2019-02-09T01:43:30.583Z,14.13
2019-02-09T01:46:00.329Z,14.60
2019-02-09T01:48:30.053Z,15.70
2019-02-09T01:50:59.779Z,14.87
2019-02-09T01:53:29.524Z,16.23
2019-02-09T01:55:59.263Z,14.40
2019-02-09T01:58:28.990Z,14.03
2019-02-09T02:00:58.732Z,12.77
2019-02-09T02:03:28.471Z,17.03
2019-02-09T02:05:58.222Z,14.93
2019-02-09T02:08:27.948Z,17.97
2019-02-09T02:10:57.690Z,14.40
2019-02-09T02:13:27.422Z,15.03
2019-02-09T02:15:57.241Z,15.37
2019-02-09T02:18:26.968Z,14.67
2019-02-09T02:20:56.707Z,17.97
2019-02-09T02:23:26.469Z,14.10
2019-02-09T02:25:56.197Z,14.37
2019-02-09T02:28:25.929Z,12.00
2019-02-09T02:30:55.691Z,11.23
2019-02-09T02:33:25.443Z,14.57
2019-02-09T02:35:55.163Z,14.30
2019-02-09T02:38:24.875Z,13.83
2019-02-09T02:40:54.609Z,11.93
2019-02-09T02:43:24.316Z,11.47
2019-02-09T02:45:54.072Z,12.07
2019-02-09T02:48:23.811Z,12.33
2019-02-09T02:50:53.560Z,10.47
2019-02-09T02:53:23.285Z,11.80
2019-02-09T02:55:53.029Z,13.43
2019-02-09T02:58:22.753Z,12.33
2019-02-09T03:00:52.504Z,9.80
2019-02-09T03:03:22.237Z,10.50
2019-02-09T03:05:51.977Z,13.07
2019-02-09T03:08:21.701Z,11.10
2019-02-09T03:10:51.440Z,8.70
2019-02-09T03:13:21.169Z,10.47
2019-02-09T03:15:51.028Z,10.57
2019-02-09T03:18:20.703Z,11.37
2019-02-09T03:20:50.460Z,9.83
2019-02-09T03:23:20.167Z,11.97
2019-02-09T03:25:49.922Z,8.13
2019-02-09T03:28:19.650Z,9.07
2019-02-09T03:30:49.546Z,10.23
2019-02-09T03:33:19.281Z,8.60
2019-02-09T03:35:50.075Z,8.73
2019-02-09T03:38:19.815Z,10.43
2019-02-09T03:40:49.535Z,7.80
2019-02-09T03:43:19.279Z,9.80
2019-02-09T03:45:48.997Z,10.00
2019-02-09T03:48:18.742Z,8.83
2019-02-09T03:50:48.463Z,9.27
2019-02-09T03:53:18.186Z,8.50
2019-02-09T03:55:47.907Z,10.90
2019-02-09T03:58:17.655Z,7.50
2019-02-09T04:00:55.158Z,6.93
2019-02-09T04:03:18.809Z,10.13
2019-02-09T04:05:48.517Z,7.63
2019-02-09T04:08:18.275Z,6.37
2019-02-09T04:10:48.066Z,6.03
2019-02-09T04:13:17.940Z,6.33
2019-02-09T04:15:47.592Z,5.00
2019-02-09T04:18:17.330Z,5.47
2019-02-09T04:20:47.031Z,5.80
2019-02-09T04:23:16.785Z,5.57
2019-02-09T04:25:46.549Z,4.90
2019-02-09T04:28:16.280Z,5.83
2019-02-09T04:30:45.981Z,6.53
2019-02-09T04:33:15.723Z,6.80
2019-02-09T04:35:45.440Z,8.23
2019-02-09T04:38:15.177Z,7.50
2019-02-09T04:40:44.899Z,8.67
2019-02-09T04:43:14.629Z,6.03
2019-02-09T04:45:44.324Z,6.93
2019-02-09T04:48:14.047Z,8.03
2019-02-09T04:50:43.749Z,7.40
2019-02-09T04:53:13.580Z,10.10
2019-02-09T04:55:43.362Z,12.17
2019-02-09T04:58:13.107Z,10.90
2019-02-09T05:00:42.812Z,9.17
2019-02-09T05:03:12.571Z,10.30
2019-02-09T05:05:42.288Z,8.20
2019-02-09T05:08:12.028Z,9.90
2019-02-09T05:10:41.750Z,12.07
2019-02-09T05:13:11.470Z,7.10
2019-02-09T05:15:41.182Z,8.10
2019-02-09T05:18:10.924Z,7.23
2019-02-09T05:20:40.658Z,16.43
2019-02-09T05:23:10.427Z,9.57
2019-02-09T05:25:40.303Z,9.83
2019-02-09T05:28:10.061Z,15.63
2019-02-09T05:30:39.758Z,11.57
2019-02-09T05:33:09.504Z,14.30
2019-02-09T05:35:39.218Z,15.57
2019-02-09T05:38:08.954Z,15.33
2019-02-09T05:40:38.673Z,13.90
2019-02-09T05:43:08.411Z,9.63
2019-02-09T05:45:38.132Z,14.93
2019-02-09T05:48:07.863Z,15.40
2019-02-09T05:50:37.610Z,13.33
2019-02-09T05:53:07.357Z,11.67
2019-02-09T05:55:37.095Z,14.60
2019-02-09T05:58:06.832Z,11.33
2019-02-09T06:00:38.190Z,13.93
2019-02-09T06:03:07.967Z,11.83
2019-02-09T06:05:37.754Z,11.47
2019-02-09T06:08:07.486Z,14.77
2019-02-09T06:10:37.205Z,17.03
2019-02-09T06:13:06.971Z,9.73
2019-02-09T06:15:36.699Z,12.77
2019-02-09T06:18:06.439Z,10.73
2019-02-09T06:20:36.155Z,11.43
2019-02-09T06:23:05.899Z,10.50
2019-02-09T06:25:35.608Z,14.07
2019-02-09T06:28:05.348Z,11.87
2019-02-09T06:30:35.068Z,10.20
2019-02-09T06:33:04.824Z,11.53
2019-02-09T06:35:34.547Z,13.40
2019-02-09T06:38:04.291Z,13.27
2019-02-09T06:40:34.040Z,13.60
2019-02-09T06:43:03.962Z,18.77
2019-02-09T06:45:33.708Z,12.17
2019-02-09T06:48:24.048Z,13.53
2019-02-09T06:50:54.816Z,18.83
2019-02-09T06:53:24.576Z,15.80
2019-02-09T06:55:54.297Z,12.53
2019-02-09T06:58:24.022Z,12.73
2019-02-09T07:00:53.773Z,12.23
2019-02-09T07:03:23.495Z,11.37
2019-02-09T07:05:53.226Z,18.97
2019-02-09T07:08:22.991Z,13.90
2019-02-09T07:10:52.698Z,14.27
2019-02-09T07:13:22.451Z,14.83
2019-02-09T07:15:52.179Z,16.10
2019-02-09T07:18:21.916Z,17.53
2019-02-09T07:20:51.639Z,12.07
2019-02-09T07:23:21.379Z,14.63
2019-02-09T07:25:51.130Z,16.70
2019-02-09T07:28:20.896Z,17.40
2019-02-09T07:30:50.612Z,22.53
2019-02-09T07:33:20.336Z,13.20
2019-02-09T07:35:50.100Z,15.93
2019-02-09T07:38:19.835Z,12.23
2019-02-09T07:40:49.591Z,13.67
2019-02-09T07:43:19.392Z,14.10
2019-02-09T07:45:49.149Z,16.70
2019-02-09T07:48:18.875Z,12.83
2019-02-09T07:50:48.627Z,16.50
2019-02-09T07:53:18.341Z,11.80
2019-02-09T07:55:48.116Z,14.40
2019-02-09T07:58:17.850Z,17.10
2019-02-09T08:00:47.596Z,14.50
2019-02-09T08:03:17.347Z,12.63
2019-02-09T08:05:47.082Z,13.13
2019-02-09T08:08:16.828Z,19.93
2019-02-09T08:10:46.578Z,12.23
2019-02-09T08:13:16.866Z,18.30
2019-02-09T08:15:46.607Z,13.47
2019-02-09T08:18:16.334Z,12.87
2019-02-09T08:20:46.090Z,16.37
2019-02-09T08:23:15.819Z,14.83
2019-02-09T08:25:45.529Z,15.20
2019-02-09T08:28:15.342Z,14.50
2019-02-09T08:30:46.732Z,14.67
2019-02-09T08:33:16.472Z,12.80
2019-02-09T08:35:46.218Z,13.43
2019-02-09T08:38:16.736Z,13.10
2019-02-09T08:40:46.484Z,13.80
2019-02-09T08:43:16.250Z,12.70
2019-02-09T08:45:45.975Z,13.13
2019-02-09T08:48:15.735Z,10.90
2019-02-09T08:50:51.475Z,16.53
2019-02-09T08:53:21.257Z,13.30
2019-02-09T08:55:50.994Z,10.13
2019-02-09T08:58:20.744Z,15.80
2019-02-09T09:00:50.512Z,13.60
2019-02-09T09:03:20.251Z,20.53
2019-02-09T09:05:49.981Z,15.13
2019-02-09T09:08:19.703Z,15.53
2019-02-09T09:10:49.456Z,15.50
2019-02-09T09:13:19.254Z,18.87
2019-02-09T09:15:52.122Z,16.63
2019-02-09T09:18:21.834Z,14.93
2019-02-09T09:20:54.470Z,18.73
2019-02-09T09:23:24.194Z,15.10
2019-02-09T09:25:53.950Z,13.77
2019-02-09T09:28:23.668Z,18.83
2019-02-09T09:30:53.437Z,13.90
2019-02-09T09:33:23.217Z,18.87
2019-02-09T09:35:53.011Z,13.60
2019-02-09T09:38:22.750Z,17.33
2019-02-09T09:40:52.476Z,17.73
2019-02-09T09:43:22.201Z,15.80
2019-02-09T09:45:51.966Z,17.53
2019-02-09T09:48:21.771Z,16.90
2019-02-09T09:50:51.511Z,16.43
2019-02-09T09:53:21.237Z,22.00
2019-02-09T09:55:51.173Z,21.57
2019-02-09T09:58:20.918Z,19.37
2019-02-09T10:00:50.666Z,22.17
2019-02-09T10:03:20.388Z,19.90
2019-02-09T10:05:50.119Z,25.53
2019-02-09T10:08:19.847Z,20.70
2019-02-09T10:10:49.586Z,20.73
2019-02-09T10:13:19.329Z,20.17
2019-02-09T10:15:49.083Z,16.33
2019-02-09T10:18:18.830Z,20.67
2019-02-09T10:20:49.684Z,17.27
2019-02-09T10:23:19.407Z,16.97
2019-02-09T10:25:49.163Z,20.50
2019-02-09T10:28:18.896Z,16.23
2019-02-09T10:30:48.626Z,20.80
2019-02-09T10:33:18.341Z,20.90
2019-02-09T10:35:48.095Z,14.80
2019-02-09T10:38:17.823Z,19.63
2019-02-09T10:40:47.601Z,21.07
2019-02-09T10:43:18.811Z,21.13
2019-02-09T10:45:48.561Z,18.10
2019-02-09T10:48:18.445Z,20.30
2019-02-09T10:50:48.203Z,20.53
2019-02-09T10:53:17.927Z,19.30
2019-02-09T10:55:47.665Z,20.00
2019-02-09T10:58:17.384Z,15.47
2019-02-09T11:00:49.766Z,23.50
2019-02-09T11:03:19.561Z,18.90
2019-02-09T11:05:49.305Z,18.57
2019-02-09T11:08:19.025Z,18.93
2019-02-09T11:10:48.776Z,17.30
2019-02-09T11:13:18.510Z,22.33
2019-02-09T11:15:48.457Z,24.10
2019-02-09T11:18:18.163Z,19.30
2019-02-09T11:20:47.937Z,18.80
2019-02-09T11:23:17.650Z,22.80
2019-02-09T11:25:47.451Z,19.63
2019-02-09T11:28:18.191Z,18.93
2019-02-09T11:30:47.987Z,19.43
2019-02-09T11:33:17.692Z,25.53
2019-02-09T11:35:47.424Z,21.10
2019-02-09T11:38:17.158Z,22.00
2019-02-09T11:40:46.909Z,21.03
2019-02-09T11:43:16.670Z,20.03
2019-02-09T11:45:46.452Z,20.27
2019-02-09T11:48:16.156Z,21.47
2019-02-09T11:50:46.298Z,18.67
2019-02-09T11:53:16.097Z,25.30
2019-02-09T11:55:45.970Z,22.07
2019-02-09T11:58:16.315Z,22.73
2019-02-09T12:00:51.348Z,23.40
2019-02-09T12:03:21.103Z,24.13
2019-02-09T12:05:50.924Z,18.37
2019-02-09T12:08:20.639Z,21.90
2019-02-09T12:10:50.494Z,16.50
2019-02-09T12:13:20.184Z,21.50
2019-02-09T12:15:49.933Z,21.90
2019-02-09T12:18:19.681Z,15.87
2019-02-09T12:20:49.428Z,17.83
2019-02-09T12:23:19.187Z,19.57
2019-02-09T12:25:48.925Z,22.30
2019-02-09T12:28:18.696Z,17.73
2019-02-09T12:30:48.422Z,19.50
2019-02-09T12:33:23.167Z,22.00
2019-02-09T12:35:49.752Z,19.20
2019-02-09T12:38:19.506Z,17.77
2019-02-09T12:40:49.227Z,19.63
2019-02-09T12:43:18.984Z,17.83
2019-02-09T12:45:48.734Z,19.30
2019-02-09T12:48:18.503Z,21.33
2019-02-09T12:50:48.248Z,18.93
2019-02-09T12:53:19.410Z,22.30
2019-02-09T12:55:49.219Z,20.70
2019-02-09T12:58:18.987Z,22.97
2019-02-09T13:00:48.726Z,21.13
2019-02-09T13:03:30.913Z,21.27
2019-02-09T13:05:55.519Z,22.30
2019-02-09T13:08:25.302Z,22.67
2019-02-09T13:10:56.056Z,21.53
2019-02-09T13:13:25.820Z,20.43
2019-02-09T13:15:55.587Z,19.37
2019-02-09T13:18:25.360Z,19.70
2019-02-09T13:20:55.102Z,22.00
2019-02-09T13:23:24.894Z,20.97
2019-02-09T13:25:54.658Z,17.60
2019-02-09T13:28:24.426Z,19.53
2019-02-09T13:30:54.204Z,23.63
2019-02-09T13:33:23.976Z,19.87
2019-02-09T13:35:53.724Z,24.93
2019-02-09T13:38:23.452Z,17.77
2019-02-09T13:40:53.218Z,18.70
2019-02-09T13:43:22.956Z,16.20
2019-02-09T13:45:52.725Z,21.80
2019-02-09T13:48:22.434Z,20.23
2019-02-09T13:50:52.194Z,17.83
2019-02-09T13:53:22.895Z,22.07
2019-02-09T13:55:52.678Z,19.33
2019-02-09T13:58:22.466Z,16.27
2019-02-09T14:00:52.222Z,14.73
2019-02-09T14:03:21.976Z,15.47
2019-02-09T14:05:51.819Z,20.43
2019-02-09T14:08:21.579Z,13.30
2019-02-09T14:10:51.314Z,20.20
2019-02-09T14:13:21.043Z,17.57
2019-02-09T14:15:50.821Z,19.10
2019-02-09T14:18:20.551Z,22.47
2019-02-09T14:23:38.425Z,19.20
2019-02-09T14:26:08.197Z,20.57
2019-02-09T14:28:37.933Z,19.63
2019-02-09T14:31:09.374Z,20.57
2019-02-09T14:33:39.118Z,17.37
2019-02-09T14:36:08.854Z,19.03
2019-02-09T14:38:50.887Z,19.00
2019-02-09T14:41:26.468Z,20.37
2019-02-09T14:44:01.681Z,20.80
2019-02-09T14:46:45.353Z,19.40
2019-02-09T14:49:15.069Z,19.03
2019-02-09T14:51:44.825Z,20.13
2019-02-09T14:54:14.593Z,19.87
2019-02-09T14:56:44.337Z,20.70
2019-02-09T14:59:14.065Z,22.47
2019-02-09T15:01:44.906Z,21.07
2019-02-09T15:04:14.636Z,22.50
2019-02-09T15:06:44.403Z,22.13
2019-02-09T15:09:15.036Z,19.63
2019-02-09T15:11:44.811Z,19.37
2019-02-09T15:14:15.620Z,19.73
2019-02-09T15:16:45.370Z,19.23
2019-02-09T15:19:15.083Z,17.17
2019-02-09T15:21:44.840Z,18.37
2019-02-09T15:24:20.442Z,17.30
2019-02-09T15:26:50.203Z,23.73
2019-02-09T15:29:19.967Z,21.67
2019-02-09T15:31:49.698Z,19.67
2019-02-09T15:34:19.417Z,16.30
2019-02-09T15:36:49.167Z,24.50
2019-02-09T15:39:19.110Z,15.80
2019-02-09T15:41:48.908Z,22.30
2019-02-09T15:44:18.649Z,15.27
2019-02-09T15:46:48.472Z,20.63
2019-02-09T15:49:18.213Z,16.83
2019-02-09T15:51:47.957Z,20.33
2019-02-09T15:54:17.678Z,16.27
2019-02-09T15:56:47.498Z,16.87
2019-02-09T15:59:17.223Z,15.73
2019-02-09T16:01:47.073Z,14.93
2019-02-09T16:04:18.180Z,15.37
2019-02-09T16:06:48.079Z,19.03
2019-02-09T16:09:17.858Z,12.97
2019-02-09T16:11:47.603Z,13.23
2019-02-09T16:14:17.435Z,15.40
2019-02-09T16:16:47.198Z,15.30
2019-02-09T16:19:16.940Z,17.03
2019-02-09T16:21:46.777Z,13.83
2019-02-09T16:24:17.517Z,14.07
2019-02-09T16:26:47.295Z,15.30
2019-02-09T16:29:17.097Z,15.73
2019-02-09T16:31:46.944Z,14.80
2019-02-09T16:34:25.467Z,16.43
2019-02-09T16:45:44.857Z,13.40
2019-02-09T16:48:14.616Z,16.43
2019-02-09T16:50:44.356Z,22.80
2019-02-09T16:53:14.173Z,16.60
2019-02-09T16:55:43.905Z,13.63
2019-02-09T16:58:13.660Z,19.00
2019-02-09T17:00:45.680Z,23.80
2019-02-09T17:03:15.408Z,16.00
2019-02-09T17:05:46.236Z,19.90
2019-02-09T17:08:15.990Z,17.93
2019-02-09T17:10:45.761Z,21.10
2019-02-09T17:13:15.485Z,19.43
2019-02-09T17:15:45.226Z,20.07
2019-02-09T17:18:14.967Z,19.77
2019-02-09T17:20:45.797Z,19.73
2019-02-09T17:23:16.625Z,20.10
2019-02-09T17:25:46.369Z,19.83
2019-02-09T17:28:16.096Z,19.37
2019-02-09T17:30:45.881Z,21.53
2019-02-09T17:33:15.679Z,21.37
2019-02-09T17:35:45.429Z,21.97
2019-02-09T17:38:16.262Z,22.73
2019-02-09T17:40:47.725Z,22.93
2019-02-09T17:43:17.477Z,19.57
2019-02-09T17:45:53.483Z,21.30
2019-02-09T17:48:23.263Z,20.27
2019-02-09T17:50:52.996Z,23.83
2019-02-09T17:53:22.761Z,18.67
2019-02-09T17:55:53.648Z,24.60
2019-02-09T17:58:23.409Z,22.57
2019-02-09T18:00:57.531Z,22.43
2019-02-09T18:03:27.279Z,23.33
2019-02-09T18:05:57.012Z,22.37
2019-02-09T19:17:54.086Z,21.83
2019-02-09T19:20:35.744Z,16.13
2019-02-09T19:23:05.788Z,16.77
2019-02-09T19:25:35.817Z,16.83
2019-02-09T19:28:05.841Z,19.90
2019-02-09T19:30:35.654Z,19.07
2019-02-09T19:33:06.227Z,19.87
2019-02-09T19:35:35.994Z,23.13
2019-02-09T19:38:05.754Z,19.73
2019-02-09T19:40:35.565Z,21.50
2019-02-09T19:43:05.380Z,22.77
2019-02-09T19:45:36.695Z,20.10
2019-02-09T19:48:07.491Z,17.77
2019-02-09T19:50:37.239Z,21.87
2019-02-09T19:53:07.067Z,18.93
2019-02-09T19:55:37.060Z,20.23
2019-02-09T19:58:07.012Z,25.87
2019-02-09T20:00:45.713Z,25.47
2019-02-09T20:03:15.644Z,20.33
2019-02-09T20:05:45.378Z,19.40
2019-02-09T20:08:15.136Z,19.30
2019-02-09T20:10:45.015Z,24.30
2019-02-09T20:13:15.038Z,21.97
2019-02-09T20:15:44.792Z,22.63
2019-02-09T20:18:14.521Z,20.87
2019-02-09T20:20:47.231Z,22.63
2019-02-09T20:23:15.833Z,23.37
2019-02-09T20:25:45.552Z,20.27
2019-02-09T20:28:15.309Z,24.77
2019-02-09T20:30:45.061Z,21.73
2019-02-09T20:33:14.854Z,22.67
2019-02-09T20:35:44.659Z,21.63
2019-02-09T20:38:14.392Z,21.10
2019-02-09T20:40:49.595Z,22.80
2019-02-09T20:43:21.504Z,25.00
2019-02-09T20:45:51.279Z,21.97
2019-02-09T20:48:21.057Z,21.50
2019-02-09T20:50:50.886Z,19.87
2019-02-09T20:53:20.646Z,25.23
2019-02-09T20:55:50.381Z,24.30
2019-02-09T20:58:20.239Z,19.93
2019-02-09T21:00:50.064Z,20.13
2019-02-09T21:03:19.840Z,21.53
2019-02-09T21:05:49.756Z,25.57
2019-02-09T21:08:19.520Z,24.63
2019-02-09T21:10:49.258Z,25.70
2019-02-09T21:13:19.022Z,17.57
2019-02-09T21:15:48.815Z,21.90
2019-02-09T21:18:18.569Z,20.37
2019-02-09T21:20:48.351Z,21.50
2019-02-09T21:23:18.189Z,20.77
2019-02-09T21:25:48.403Z,21.40
2019-02-09T21:28:18.148Z,20.00
2019-02-09T21:30:47.889Z,20.50
2019-02-09T21:33:17.620Z,21.20
2019-02-09T21:35:47.357Z,27.57
2019-02-09T21:38:17.133Z,22.03
2019-02-09T21:40:46.893Z,22.80
2019-02-09T21:43:16.660Z,22.50
2019-02-09T21:45:46.410Z,21.23
2019-02-09T21:48:16.322Z,18.77
2019-02-09T21:50:46.079Z,19.40
2019-02-09T21:53:15.840Z,18.73
2019-02-09T21:55:45.566Z,23.90
2019-02-09T21:58:15.328Z,24.60
2019-02-09T22:00:45.665Z,25.23
2019-02-09T22:03:15.533Z,22.33
2019-02-09T22:05:51.731Z,22.27
2019-02-09T22:08:19.971Z,22.10
2019-02-09T22:10:49.577Z,19.77
2019-02-09T22:13:19.316Z,17.17
2019-02-09T22:15:49.095Z,20.43
2019-02-09T22:18:18.818Z,18.70
2019-02-09T22:20:52.750Z,22.60
2019-02-09T22:23:20.019Z,22.30
2019-02-09T22:25:49.885Z,23.60
2019-02-09T22:28:19.674Z,21.30
2019-02-09T22:30:49.455Z,20.90
2019-02-09T22:33:24.736Z,22.67
2019-02-09T22:35:50.662Z,20.80
2019-02-09T22:38:20.535Z,19.20
2019-02-09T22:40:50.319Z,21.30
2019-02-09T22:43:20.075Z,23.30
2019-02-09T22:45:49.884Z,26.17
2019-02-09T22:48:19.705Z,21.87
2019-02-09T22:50:49.538Z,19.07
2019-02-09T22:53:19.310Z,20.80
2019-02-09T22:55:49.042Z,26.73
2019-02-09T22:58:19.851Z,19.03
2019-02-09T23:01:15.305Z,18.90
2019-02-09T23:04:00.353Z,20.93
2019-02-09T23:06:57.427Z,18.97
2019-02-09T23:09:27.287Z,21.57
2019-02-09T23:11:57.008Z,21.90
2019-02-09T23:14:26.780Z,20.90
2019-02-09T23:16:56.596Z,19.83
2019-02-09T23:19:26.347Z,18.20
2019-02-09T23:21:56.065Z,19.20
2019-02-09T23:24:25.836Z,18.67
2019-02-09T23:26:56.643Z,16.00
2019-02-09T23:29:26.418Z,19.53
2019-02-09T23:31:56.150Z,22.87
2019-02-09T23:34:25.915Z,19.03
2019-02-09T23:36:55.642Z,23.67
2019-02-09T23:39:25.384Z,19.27
2019-02-09T23:41:55.103Z,20.57
2019-02-09T23:44:24.854Z,19.43
2019-02-09T23:46:54.576Z,20.67
2019-02-09T23:49:24.327Z,21.87
2019-02-09T23:51:54.100Z,17.67
2019-02-09T23:54:23.825Z,20.63
2019-02-09T23:56:53.637Z,23.37
2019-02-09T23:59:23.374Z,18.33
